Time;durP1;ratioP1;P1;durP2;ratioP2;P2;SDS_P1;SDS_P2;PMS_P1;PMS_P2;Temp;Humidity;BMP_temperature;BMP_pressure;BME280_temperature;BME280_humidity;BME280_pressure;Samples;Min_cycle;Max_cycle;Signal;HPM_P1;HPM_P2
2024/02/05 00:06:04;;;;;;;0.20;0.10;;;;;;;;;;4996167;28;20412;-80
2024/02/05 00:08:34;;;;;;;0.20;0.20;;;;;;;;;;4981948;28;20042;-79
2024/02/05 00:11:05;;;;;;;0.20;0.20;;;;;;;;;;4981053;28;20499;-80
2024/02/05 00:13:40;;;;;;;0.47;0.20;;;;;;;;;;4977100;28;20394;-80
2024/02/05 00:16:08;;;;;;;0.28;0.20;;;;;;;;;;4945499;28;20030;-80
2024/02/05 00:18:39;;;;;;;0.15;0.10;;;;;;;;;;4961638;28;20066;-80
2024/02/05 00:21:07;;;;;;;0.32;0.20;;;;;;;;;;4979478;28;20444;-79
2024/02/05 00:23:36;;;;;;;0.25;0.20;;;;;;;;;;4976877;28;20027;-79
2024/02/05 00:26:05;;;;;;;1.17;0.50;;;;;;;;;;4945944;28;20490;-80
2024/02/05 00:28:32;;;;;;;0.47;0.32;;;;;;;;;;4976477;28;20475;-79
2024/02/05 00:31:01;;;;;;;0.55;0.30;;;;;;;;;;4976158;28;20676;-81
2024/02/05 00:33:29;;;;;;;0.47;0.30;;;;;;;;;;4944512;28;20498;-80
2024/02/05 00:36:00;;;;;;;0.70;0.43;;;;;;;;;;4961450;28;20106;-79
2024/02/05 00:38:31;;;;;;;0.30;0.20;;;;;;;;;;4977672;28;20097;-81
2024/02/05 00:40:59;;;;;;;2.63;0.70;;;;;;;;;;4944148;28;20474;-80
2024/02/05 00:43:26;;;;;;;0.52;0.22;;;;;;;;;;4960834;28;20410;-79
2024/02/05 00:45:52;;;;;;;0.77;0.30;;;;;;;;;;4946331;28;20038;-79
2024/02/05 00:48:18;;;;;;;0.73;0.40;;;;;;;;;;4978522;28;20074;-79
2024/02/05 00:50:44;;;;;;;1.80;0.65;;;;;;;;;;4978181;28;20065;-80
2024/02/05 00:53:10;;;;;;;0.38;0.20;;;;;;;;;;4946052;28;20042;-80
2024/02/05 00:55:35;;;;;;;1.45;0.32;;;;;;;;;;4981479;28;20038;-80
2024/02/05 01:10:10;;;;;;;0.50;0.28;;;;;;;;;;4978508;28;20050;-79
2024/02/05 01:16:27;;;;;;;1.75;0.35;;;;;;;;;;5713903;23;20045;-79
2024/02/05 01:20:20;;;;;;;0.98;0.50;;;;;;;;;;5036667;28;20029;-80
2024/02/05 01:35:35;;;;;;;0.38;0.30;;;;;;;;;;5196717;23;20046;-79
2024/02/05 01:38:04;;;;;;;0.50;0.22;;;;;;;;;;4976713;28;20494;-79
2024/02/05 01:40:30;;;;;;;1.02;0.43;;;;;;;;;;4959872;28;20070;-80
2024/02/05 01:42:56;;;;;;;0.98;0.30;;;;;;;;;;4960228;28;20046;-81
2024/02/05 01:45:23;;;;;;;2.72;0.25;;;;;;;;;;4942604;29;20038;-81
2024/02/05 01:47:51;;;;;;;0.45;0.30;;;;;;;;;;4942629;29;20095;-80
2024/02/05 01:50:21;;;;;;;0.55;0.22;;;;;;;;;;4909734;29;20036;-79
2024/02/05 01:52:53;;;;;;;0.20;0.15;;;;;;;;;;4957211;29;20039;-79
2024/02/05 01:55:27;;;;;;;0.10;0.10;;;;;;;;;;4925851;29;20047;-80
2024/02/05 01:57:59;;;;;;;0.50;0.40;;;;;;;;;;4923900;29;20039;-80
2024/02/05 02:00:35;;;;;;;0.45;0.30;;;;;;;;;;4940972;29;20039;-81
2024/02/05 02:03:19;;;;;;;2.15;0.35;;;;;;;;;;4929989;28;20506;-81
2024/02/05 02:05:47;;;;;;;0.52;0.30;;;;;;;;;;4928098;29;20057;-81
2024/02/05 02:08:23;;;;;;;3.53;0.30;;;;;;;;;;4928306;29;20043;-80
2024/02/05 02:10:52;;;;;;;0.55;0.20;;;;;;;;;;4942454;29;20074;-81
2024/02/05 02:13:45;;;;;;;0.57;0.20;;;;;;;;;;4942389;29;20051;-80
2024/02/05 02:16:22;;;;;;;0.32;0.20;;;;;;;;;;4925412;29;20046;-79
2024/02/05 02:18:51;;;;;;;0.50;0.20;;;;;;;;;;4943035;29;20035;-80
2024/02/05 02:21:23;;;;;;;1.00;0.30;;;;;;;;;;4942491;29;20514;-80
2024/02/05 02:24:01;;;;;;;0.65;0.40;;;;;;;;;;4929955;29;20111;-79
2024/02/05 02:26:29;;;;;;;1.10;0.60;;;;;;;;;;4914836;29;20431;-79
2024/02/05 02:32:31;;;;;;;0.80;0.20;;;;;;;;;;4952628;28;20047;-78
2024/02/05 02:35:01;;;;;;;1.08;0.22;;;;;;;;;;4963209;28;20035;-79
2024/02/05 02:37:35;;;;;;;0.38;0.20;;;;;;;;;;4946248;29;20042;-79
2024/02/05 02:40:13;;;;;;;0.33;0.17;;;;;;;;;;4946745;29;20406;-78
2024/02/05 02:42:42;;;;;;;0.77;0.55;;;;;;;;;;4945699;29;20612;-80
2024/02/05 02:45:08;;;;;;;;;;;;;;;;;;4944136;29;20495;-79
2024/02/05 02:48:00;;;;;;;0.45;0.30;;;;;;;;;;4960281;29;20012;-80
2024/02/05 02:50:34;;;;;;;1.80;0.30;;;;;;;;;;4961251;29;20086;-80
2024/02/05 02:53:02;;;;;;;1.65;0.20;;;;;;;;;;4943580;29;20090;-79
2024/02/05 02:55:29;;;;;;;0.52;0.30;;;;;;;;;;4960091;28;20086;-78
2024/02/05 02:57:55;;;;;;;2.33;1.33;;;;;;;;;;4960661;29;20046;-78
2024/02/05 03:00:23;;;;;;;0.95;0.60;;;;;;;;;;4944353;29;20031;-78
2024/02/05 03:02:53;;;;;;;1.40;0.40;;;;;;;;;;4943327;29;20072;-78
2024/02/05 03:05:20;;;;;;;0.65;0.40;;;;;;;;;;4958746;28;20027;-79
2024/02/05 03:07:48;;;;;;;0.65;0.40;;;;;;;;;;4928129;29;20046;-80
2024/02/05 03:10:14;;;;;;;1.13;0.45;;;;;;;;;;4959557;29;20046;-79
2024/02/05 03:12:49;;;;;;;4.80;0.60;;;;;;;;;;4961143;28;20059;-79
2024/02/05 03:15:22;;;;;;;3.65;0.57;;;;;;;;;;4959264;28;20114;-79
2024/02/05 03:17:50;;;;;;;1.00;0.60;;;;;;;;;;4959938;29;20023;-79
2024/02/05 03:20:37;;;;;;;1.58;0.50;;;;;;;;;;4960088;29;20061;-80
2024/02/05 03:23:04;;;;;;;1.30;0.60;;;;;;;;;;4960624;29;20035;-78
2024/02/05 03:25:40;;;;;;;2.35;0.55;;;;;;;;;;4947066;29;20095;-80
2024/02/05 03:28:09;;;;;;;1.10;0.68;;;;;;;;;;4945597;29;20133;-79
2024/02/05 03:30:50;;;;;;;2.33;0.75;;;;;;;;;;4961932;28;20419;-78
2024/02/05 03:33:19;;;;;;;0.88;0.60;;;;;;;;;;4943017;29;20468;-79
2024/02/05 03:35:45;;;;;;;2.22;0.73;;;;;;;;;;4942872;29;20036;-79
2024/02/05 03:38:11;;;;;;;2.10;0.60;;;;;;;;;;4943052;29;20526;-79
2024/02/05 03:40:37;;;;;;;1.15;0.60;;;;;;;;;;4941866;29;20044;-79
2024/02/05 03:43:03;;;;;;;1.52;0.60;;;;;;;;;;4941552;29;20040;-79
2024/02/05 03:45:32;;;;;;;2.08;0.70;;;;;;;;;;4944853;29;20039;-80
2024/02/05 03:48:00;;;;;;;2.10;0.90;;;;;;;;;;4948594;29;20044;-79
2024/02/05 03:50:31;;;;;;;1.52;0.80;;;;;;;;;;4964930;29;20026;-79
2024/02/05 03:52:57;;;;;;;2.03;0.90;;;;;;;;;;4964940;29;20031;-78
2024/02/05 03:55:25;;;;;;;0.50;0.40;;;;;;;;;;4960330;29;20050;-79
2024/02/05 03:58:03;;;;;;;2.97;0.68;;;;;;;;;;4979463;28;20027;-80
2024/02/05 04:00:31;;;;;;;0.88;0.60;;;;;;;;;;4977519;28;20553;-79
2024/02/05 04:03:03;;;;;;;1.38;0.70;;;;;;;;;;4965108;28;20039;-78
2024/02/05 04:05:31;;;;;;;1.23;0.68;;;;;;;;;;4979276;28;20015;-78
2024/02/05 04:08:00;;;;;;;2.67;0.57;;;;;;;;;;4960912;28;20043;-80
2024/02/05 04:10:27;;;;;;;1.08;0.45;;;;;;;;;;4960716;28;20059;-80
2024/02/05 04:12:53;;;;;;;0.95;0.55;;;;;;;;;;4928602;29;20047;-79
2024/02/05 04:15:22;;;;;;;1.85;0.52;;;;;;;;;;4960526;28;20043;-80
2024/02/05 04:17:52;;;;;;;0.80;0.38;;;;;;;;;;4955628;29;20059;-81
2024/02/05 04:20:20;;;;;;;;;;;;;;;;;;4925279;29;20039;-80
2024/02/05 04:22:48;;;;;;;0.90;0.57;;;;;;;;;;4940708;29;20252;-79
2024/02/05 04:25:16;;;;;;;1.20;0.60;;;;;;;;;;4940618;29;20055;-80
2024/02/05 04:27:42;;;;;;;0.95;0.52;;;;;;;;;;4957252;29;20419;-79
2024/02/05 04:30:08;;;;;;;1.40;0.90;;;;;;;;;;4956332;29;20403;-80
2024/02/05 04:32:34;;;;;;;1.50;0.57;;;;;;;;;;4943469;29;20054;-80
2024/02/05 04:35:00;;;;;;;0.73;0.50;;;;;;;;;;4959808;28;20051;-80
2024/02/05 04:37:27;;;;;;;0.98;0.50;;;;;;;;;;4928457;29;20054;-80
2024/02/05 04:39:55;;;;;;;;;;;;;;;;;;4960982;29;20067;-80
2024/02/05 04:42:28;;;;;;;1.50;0.68;;;;;;;;;;4929331;29;19910;-81
2024/02/05 04:44:53;;;;;;;;;;;;;;;;;;4943934;29;20134;-80
2024/02/05 04:47:19;;;;;;;2.15;0.85;;;;;;;;;;4960620;29;19946;-79
2024/02/05 04:49:47;;;;;;;1.63;0.65;;;;;;;;;;4960223;29;20039;-80
2024/02/05 04:52:13;;;;;;;0.90;0.50;;;;;;;;;;4943498;29;20035;-79
2024/02/05 04:54:40;;;;;;;1.50;0.50;;;;;;;;;;4959344;28;20035;-80
2024/02/05 04:57:05;;;;;;;1.85;0.50;;;;;;;;;;4959212;29;20044;-80
2024/02/05 04:59:31;;;;;;;0.82;0.60;;;;;;;;;;4927291;29;20035;-79
2024/02/05 05:01:57;;;;;;;2.15;0.68;;;;;;;;;;4942579;29;20031;-79
2024/02/05 05:04:26;;;;;;;1.00;0.53;;;;;;;;;;4927450;29;20067;-80
2024/02/05 05:06:52;;;;;;;0.93;0.55;;;;;;;;;;4959554;29;20032;-81
2024/02/05 05:09:29;;;;;;;6.00;0.80;;;;;;;;;;4960725;29;20122;-81
2024/02/05 05:11:57;;;;;;;2.17;0.70;;;;;;;;;;4930190;29;20046;-79
2024/02/05 05:14:23;;;;;;;2.28;0.60;;;;;;;;;;4945331;29;20031;-80
2024/02/05 05:16:57;;;;;;;1.42;0.65;;;;;;;;;;4961586;29;20038;-80
2024/02/05 05:20:00;;;;;;;2.53;0.55;;;;;;;;;;4964103;28;20027;-79
2024/02/05 05:22:32;;;;;;;3.55;0.88;;;;;;;;;;4949636;29;20035;-80
2024/02/05 05:25:07;;;;;;;1.63;0.63;;;;;;;;;;4948012;29;20201;-80
2024/02/05 05:27:45;;;;;;;1.77;0.77;;;;;;;;;;4949004;29;20127;-79
2024/02/05 05:30:17;;;;;;;1.92;0.60;;;;;;;;;;4959133;28;20771;-80
2024/02/05 05:32:45;;;;;;;1.30;0.60;;;;;;;;;;4923114;29;20566;-80
2024/02/05 05:35:15;;;;;;;2.13;0.77;;;;;;;;;;4949659;28;20492;-80
2024/02/05 05:37:52;;;;;;;1.33;0.68;;;;;;;;;;4936555;29;20024;-80
2024/02/05 05:40:18;;;;;;;2.42;0.85;;;;;;;;;;4919186;29;20099;-79
2024/02/05 05:42:49;;;;;;;2.20;0.70;;;;;;;;;;4935414;29;20053;-80
2024/02/05 05:45:26;;;;;;;2.45;0.90;;;;;;;;;;4934915;29;20060;-79
2024/02/05 05:47:57;;;;;;;2.55;0.90;;;;;;;;;;4936380;29;20055;-80
2024/02/05 05:50:23;;;;;;;1.80;0.88;;;;;;;;;;4919730;29;20040;-80
2024/02/05 05:52:49;;;;;;;1.58;0.90;;;;;;;;;;4948382;29;20035;-80
2024/02/05 05:55:16;;;;;;;5.40;0.90;;;;;;;;;;4954141;28;20045;-81
2024/02/05 05:57:53;;;;;;;2.08;0.90;;;;;;;;;;4944180;29;20055;-79
2024/02/05 06:00:24;;;;;;;1.23;0.70;;;;;;;;;;4965929;29;20035;-80
2024/02/05 06:02:50;;;;;;;1.65;0.85;;;;;;;;;;4951205;29;20043;-79
2024/02/05 06:05:38;;;;;;;2.75;0.85;;;;;;;;;;4953568;29;20038;-78
2024/02/05 06:08:04;;;;;;;1.52;0.73;;;;;;;;;;4937565;29;20047;-79
2024/02/05 06:10:31;;;;;;;3.05;1.02;;;;;;;;;;4919021;29;20161;-80
2024/02/05 06:23:57;;;;;;;3.47;0.98;;;;;;;;;;5014548;23;20049;-80
2024/02/05 06:26:23;;;;;;;1.85;0.80;;;;;;;;;;4967843;28;20494;-80
2024/02/05 06:28:54;;;;;;;3.35;1.42;;;;;;;;;;4992866;28;20050;-79
2024/02/05 06:31:21;;;;;;;2.25;1.02;;;;;;;;;;4993659;28;20058;-79
2024/02/05 06:34:20;;;;;;;2.20;1.20;;;;;;;;;;4992591;28;20039;-80
2024/02/05 06:36:57;;;;;;;3.75;1.10;;;;;;;;;;4975620;29;20042;-79
2024/02/05 06:39:24;;;;;;;2.42;0.98;;;;;;;;;;4962497;28;20085;-80
2024/02/05 06:41:53;;;;;;;5.35;1.35;;;;;;;;;;4982137;28;20031;-80
2024/02/05 06:44:22;;;;;;;4.05;1.73;;;;;;;;;;4951128;28;20043;-80
2024/02/05 06:46:47;;;;;;;3.58;1.38;;;;;;;;;;4982469;28;20087;-80
2024/02/05 06:49:14;;;;;;;10.25;2.03;;;;;;;;;;4981988;28;20047;-80
2024/02/05 06:51:41;;;;;;;5.10;1.42;;;;;;;;;;4981926;28;20031;-80
2024/02/05 06:54:08;;;;;;;7.13;1.80;;;;;;;;;;4963111;28;20053;-79
2024/02/05 06:56:34;;;;;;;13.90;3.15;;;;;;;;;;4959959;29;20400;-78
2024/02/05 06:58:59;;;;;;;3.65;1.80;;;;;;;;;;4943718;29;20062;-79
2024/02/05 07:01:28;;;;;;;5.68;1.58;;;;;;;;;;4957902;29;20584;-80
2024/02/05 07:03:55;;;;;;;5.88;2.20;;;;;;;;;;4941887;29;20039;-79
2024/02/05 07:06:23;;;;;;;6.72;1.95;;;;;;;;;;4941184;28;20035;-80
2024/02/05 07:08:50;;;;;;;4.25;1.85;;;;;;;;;;4941370;29;20054;-80
2024/02/05 07:11:18;;;;;;;3.83;2.08;;;;;;;;;;4957041;29;20403;-80
2024/02/05 07:21:13;;;;;;;10.90;2.45;;;;;;;;;;4939884;29;20079;-79
2024/02/05 07:24:04;;;;;;;6.15;2.10;;;;;;;;;;4950739;28;20028;-79
2024/02/05 07:37:33;;;;;;;14.07;2.58;;;;;;;;;;5423191;23;20405;-78
2024/02/05 07:40:03;;;;;;;5.28;2.10;;;;;;;;;;5014800;28;20041;-78
2024/02/05 07:42:32;;;;;;;7.65;2.13;;;;;;;;;;4961373;28;20050;-80
2024/02/05 07:45:02;;;;;;;7.93;2.80;;;;;;;;;;4977810;28;20129;-80
2024/02/05 07:47:28;;;;;;;12.60;3.30;;;;;;;;;;4977034;28;20039;-79
2024/02/05 07:50:09;;;;;;;7.43;2.03;;;;;;;;;;4994860;28;20058;-80
2024/02/05 07:52:39;;;;;;;12.68;3.15;;;;;;;;;;4985431;28;20037;-81
2024/02/05 07:55:20;;;;;;;8.23;2.28;;;;;;;;;;4944795;28;20030;-81
2024/02/05 07:57:57;;;;;;;15.07;3.35;;;;;;;;;;4967142;28;20047;-81
2024/02/05 08:00:27;;;;;;;8.77;2.03;;;;;;;;;;4973599;28;20529;-81
2024/02/05 08:03:07;;;;;;;12.35;3.28;;;;;;;;;;4949611;28;20502;-81
2024/02/05 08:05:39;;;;;;;9.25;2.63;;;;;;;;;;4939026;29;20130;-79
2024/02/05 08:08:10;;;;;;;12.43;2.55;;;;;;;;;;4938727;28;20038;-81
2024/02/05 08:10:36;;;;;;;10.25;2.53;;;;;;;;;;4938403;28;20039;-80
2024/02/05 08:13:02;;;;;;;10.18;2.17;;;;;;;;;;4957134;28;20041;-80
2024/02/05 08:15:31;;;;;;;14.02;2.58;;;;;;;;;;4958882;28;20034;-79
2024/02/05 08:17:56;;;;;;;7.47;2.27;;;;;;;;;;4927101;28;20126;-81
2024/02/05 08:20:28;;;;;;;12.02;2.63;;;;;;;;;;4980215;28;20049;-81
2024/02/05 08:22:54;;;;;;;6.28;2.70;;;;;;;;;;4949060;28;20066;-80
2024/02/05 08:25:19;;;;;;;10.35;3.60;;;;;;;;;;4952224;28;20039;-80
2024/02/05 08:27:45;;;;;;;9.88;2.80;;;;;;;;;;5000285;28;20078;-81
2024/02/05 08:33:05;;;;;;;13.93;2.40;;;;;;;;;;4985017;28;20054;-80
2024/02/05 08:35:32;;;;;;;10.75;2.78;;;;;;;;;;4985479;28;20065;-81
2024/02/05 08:38:01;;;;;;;11.93;2.55;;;;;;;;;;4954973;28;20133;-81
2024/02/05 08:40:30;;;;;;;9.88;2.13;;;;;;;;;;4991584;28;20037;-81
2024/02/05 08:42:59;;;;;;;11.65;2.58;;;;;;;;;;4978739;28;20034;-80
2024/02/05 08:45:25;;;;;;;9.88;3.17;;;;;;;;;;4987057;28;20513;-81
2024/02/05 08:47:53;;;;;;;8.27;2.60;;;;;;;;;;4958636;28;20553;-79
2024/02/05 08:50:22;;;;;;;10.95;3.20;;;;;;;;;;4963102;28;20034;-81
2024/02/05 08:52:51;;;;;;;13.52;2.58;;;;;;;;;;4980862;28;20082;-81
2024/02/05 08:55:21;;;;;;;8.77;2.45;;;;;;;;;;4981930;28;20501;-81
2024/02/05 08:58:01;;;;;;;8.85;2.70;;;;;;;;;;4978376;28;20030;-80
2024/02/05 09:00:27;;;;;;;13.98;2.67;;;;;;;;;;4978928;28;20127;-80
2024/02/05 09:02:53;;;;;;;667.58;405.60;;;;;;;;;;4990381;28;20050;-80
2024/02/05 09:05:19;;;;;;;23.80;15.00;;;;;;;;;;4988527;28;20489;-79
2024/02/05 09:07:44;;;;;;;19.90;6.88;;;;;;;;;;4991981;28;20023;-83
2024/02/05 09:10:10;;;;;;;17.38;5.85;;;;;;;;;;4953150;28;20054;-81
2024/02/05 09:12:38;;;;;;;13.43;3.13;;;;;;;;;;4961017;28;20034;-80
2024/02/05 09:15:10;;;;;;;14.93;2.72;;;;;;;;;;4972724;28;20121;-79
2024/02/05 09:17:38;;;;;;;15.70;2.63;;;;;;;;;;4980168;28;20413;-80
2024/02/05 09:20:15;;;;;;;10.38;2.22;;;;;;;;;;4989681;28;20034;-80
2024/02/05 09:23:25;;;;;;;15.85;3.13;;;;;;;;;;4990204;28;20626;-78
2024/02/05 09:25:53;;;;;;;12.95;2.47;;;;;;;;;;4985814;28;20031;-80
2024/02/05 09:29:12;;;;;;;16.42;2.60;;;;;;;;;;4997854;28;20019;-80
2024/02/05 09:31:38;;;;;;;14.85;2.70;;;;;;;;;;4999928;28;20038;-79
2024/02/05 09:34:03;;;;;;;18.02;2.85;;;;;;;;;;4985419;28;20032;-80
2024/02/05 09:36:35;;;;;;;11.93;2.15;;;;;;;;;;4970152;28;20034;-80
2024/02/05 09:39:04;;;;;;;13.30;2.90;;;;;;;;;;5001638;28;20027;-79
2024/02/05 09:41:34;;;;;;;16.33;3.28;;;;;;;;;;4998501;28;20049;-79
2024/02/05 09:44:05;;;;;;;15.73;2.70;;;;;;;;;;4995167;28;20041;-79
2024/02/05 09:46:38;;;;;;;12.93;2.85;;;;;;;;;;4960587;28;20035;-80
2024/02/05 09:49:04;;;;;;;11.88;2.65;;;;;;;;;;4962940;28;20117;-80
2024/02/05 09:51:33;;;;;;;16.98;2.92;;;;;;;;;;4965587;28;20038;-79
2024/02/05 09:53:58;;;;;;;;;;;;;;;;;;4962696;28;20481;-78
2024/02/05 09:56:29;;;;;;;12.57;2.55;;;;;;;;;;4978069;28;20001;-80
2024/02/05 09:58:55;;;;;;;14.15;2.72;;;;;;;;;;4979031;28;20058;-79
2024/02/05 10:01:27;;;;;;;20.25;3.65;;;;;;;;;;4977695;28;20140;-78
2024/02/05 10:03:56;;;;;;;19.48;2.92;;;;;;;;;;4961399;28;20565;-79
2024/02/05 10:06:29;;;;;;;20.33;4.57;;;;;;;;;;4978111;28;20019;-80
2024/02/05 10:09:02;;;;;;;15.70;2.33;;;;;;;;;;4978791;28;20470;-79
2024/02/05 10:11:50;;;;;;;13.00;2.70;;;;;;;;;;4977715;28;20027;-78
2024/02/05 10:14:16;;;;;;;12.38;2.90;;;;;;;;;;4960730;28;20065;-79
2024/02/05 10:16:46;;;;;;;17.20;3.20;;;;;;;;;;4977553;28;20054;-80
2024/02/05 10:19:11;;;;;;;15.80;2.22;;;;;;;;;;4977355;28;20062;-80
2024/02/05 10:21:42;;;;;;;15.07;2.90;;;;;;;;;;4977823;28;20058;-79
2024/02/05 10:24:17;;;;;;;19.50;2.50;;;;;;;;;;4985536;28;20458;-78
2024/02/05 10:26:44;;;;;;;11.95;2.38;;;;;;;;;;4945191;28;20065;-80
2024/02/05 10:29:12;;;;;;;20.17;2.63;;;;;;;;;;5006439;28;20497;-79
2024/02/05 10:31:45;;;;;;;15.38;3.13;;;;;;;;;;4987086;28;20076;-79
2024/02/05 10:34:22;;;;;;;11.90;2.20;;;;;;;;;;5000438;28;20508;-80
2024/02/05 10:36:47;;;;;;;18.63;3.10;;;;;;;;;;5000408;28;20096;-81
2024/02/05 10:39:23;;;;;;;14.15;2.35;;;;;;;;;;4992893;28;20026;-79
2024/02/05 10:41:48;;;;;;;15.98;2.78;;;;;;;;;;4976775;28;20033;-79
2024/02/05 10:44:14;;;;;;;21.42;4.65;;;;;;;;;;4946440;28;20035;-80
2024/02/05 10:46:41;;;;;;;12.57;2.65;;;;;;;;;;4963410;28;20042;-80
2024/02/05 10:49:12;;;;;;;17.15;3.10;;;;;;;;;;4981151;28;20041;-80
2024/02/05 10:51:39;;;;;;;14.50;2.67;;;;;;;;;;4987139;28;20026;-79
2024/02/05 10:54:08;;;;;;;18.25;3.80;;;;;;;;;;4971995;28;20049;-78
2024/02/05 10:56:45;;;;;;;14.75;3.10;;;;;;;;;;4974717;28;20039;-79
2024/02/05 10:59:14;;;;;;;11.70;3.95;;;;;;;;;;4983028;28;20029;-78
2024/02/05 11:02:24;;;;;;;12.93;2.67;;;;;;;;;;4980696;28;20482;-78
2024/02/05 11:04:51;;;;;;;15.80;4.03;;;;;;;;;;4977846;28;20498;-80
2024/02/05 11:07:18;;;;;;;16.90;2.65;;;;;;;;;;4975796;28;20622;-80
2024/02/05 11:09:46;;;;;;;13.90;3.25;;;;;;;;;;4944192;28;20066;-79
2024/02/05 11:12:12;;;;;;;22.48;4.18;;;;;;;;;;4959614;28;20038;-80
2024/02/05 11:14:39;;;;;;;19.27;3.25;;;;;;;;;;4944379;28;20031;-79
2024/02/05 11:17:05;;;;;;;16.98;3.45;;;;;;;;;;4976708;28;20034;-80
2024/02/05 11:19:32;;;;;;;14.63;3.53;;;;;;;;;;4961014;28;20038;-79
2024/02/05 11:22:01;;;;;;;14.35;3.65;;;;;;;;;;4975300;23;20514;-82
2024/02/05 11:24:28;;;;;;;20.52;3.97;;;;;;;;;;4949195;29;20083;-81
2024/02/05 11:26:55;;;;;;;21.05;2.47;;;;;;;;;;4949505;29;20032;-83
2024/02/05 11:29:22;;;;;;;14.88;3.08;;;;;;;;;;4919252;29;20100;-82
2024/02/05 11:31:48;;;;;;;16.40;3.20;;;;;;;;;;4936388;29;20538;-81
2024/02/05 11:34:17;;;;;;;;;;;;;;;;;;4947365;29;20039;-81
2024/02/05 11:36:45;;;;;;;20.45;2.50;;;;;;;;;;4934856;29;19935;-81
2024/02/05 11:39:11;;;;;;;15.95;3.13;;;;;;;;;;4939168;29;20122;-82
2024/02/05 11:41:37;;;;;;;14.10;3.63;;;;;;;;;;4933545;29;20024;-82
2024/02/05 11:44:10;;;;;;;18.35;3.10;;;;;;;;;;4935258;29;20040;-81
2024/02/05 11:46:36;;;;;;;17.20;3.15;;;;;;;;;;4932342;29;20028;-82
2024/02/05 11:49:02;;;;;;;12.73;3.10;;;;;;;;;;4933485;29;20043;-82
2024/02/05 11:51:28;;;;;;;18.23;3.00;;;;;;;;;;4926008;29;20480;-82
2024/02/05 11:54:00;;;;;;;13.48;2.67;;;;;;;;;;4961583;28;20032;-83
2024/02/05 11:56:26;;;;;;;14.10;3.28;;;;;;;;;;4932220;29;20055;-82
2024/02/05 11:58:54;;;;;;;;;;;;;;;;;;4924708;29;20028;-82
2024/02/05 12:01:23;;;;;;;10.65;2.95;;;;;;;;;;4933347;29;19934;-81
2024/02/05 12:04:02;;;;;;;18.55;4.10;;;;;;;;;;4922288;29;20499;-82
2024/02/05 12:06:29;;;;;;;20.58;3.42;;;;;;;;;;4943422;29;20071;-81
2024/02/05 12:09:12;;;;;;;16.10;3.42;;;;;;;;;;4928698;29;20036;-81
2024/02/05 12:11:39;;;;;;;13.45;2.85;;;;;;;;;;4928546;29;20127;-82
2024/02/05 12:14:07;;;;;;;10.55;2.83;;;;;;;;;;4915891;29;20039;-82
2024/02/05 12:16:33;;;;;;;14.20;2.90;;;;;;;;;;4909336;29;20044;-82
2024/02/05 12:18:59;;;;;;;14.02;3.17;;;;;;;;;;4931632;29;20036;-82
2024/02/05 12:21:26;;;;;;;21.85;3.38;;;;;;;;;;4914677;29;20119;-82
2024/02/05 12:23:52;;;;;;;20.30;3.15;;;;;;;;;;4930350;29;20976;-81
2024/02/05 12:26:18;;;;;;;15.32;3.90;;;;;;;;;;4920936;29;20035;-81
2024/02/05 12:28:50;;;;;;;14.82;3.17;;;;;;;;;;4913585;29;20073;-82
2024/02/05 12:31:21;;;;;;;12.18;3.17;;;;;;;;;;4923428;29;20035;-82
2024/02/05 12:33:58;;;;;;;14.23;3.33;;;;;;;;;;4911292;29;20530;-83
2024/02/05 12:36:25;;;;;;;17.42;3.28;;;;;;;;;;4929975;29;20036;-82
2024/02/05 12:38:52;;;;;;;16.75;3.42;;;;;;;;;;4929599;29;20055;-82
2024/02/05 12:41:19;;;;;;;9.98;3.00;;;;;;;;;;4947049;29;20377;-82
2024/02/05 12:43:45;;;;;;;19.02;3.85;;;;;;;;;;4916749;29;20046;-83
2024/02/05 12:46:11;;;;;;;18.65;3.00;;;;;;;;;;4929201;29;20155;-82
2024/02/05 12:48:37;;;;;;;18.98;3.00;;;;;;;;;;4913101;29;20177;-83
2024/02/05 12:51:07;;;;;;;18.05;4.43;;;;;;;;;;4913237;29;20059;-81
2024/02/05 12:53:34;;;;;;;15.65;3.05;;;;;;;;;;4925001;29;20046;-82
2024/02/05 12:56:01;;;;;;;14.30;2.95;;;;;;;;;;4942194;29;20024;-81
2024/02/05 12:58:27;;;;;;;13.80;2.70;;;;;;;;;;4917269;29;20101;-83
2024/02/05 13:00:54;;;;;;;15.07;2.70;;;;;;;;;;4941852;29;20027;-82
2024/02/05 13:03:20;;;;;;;9.88;2.40;;;;;;;;;;4930731;29;20036;-81
2024/02/05 13:05:47;;;;;;;14.95;3.65;;;;;;;;;;4917282;29;20507;-80
2024/02/05 13:08:13;;;;;;;12.70;2.55;;;;;;;;;;4928776;29;20035;-82
2024/02/05 13:10:43;;;;;;;11.75;2.47;;;;;;;;;;4950636;29;20035;-81
2024/02/05 13:13:10;;;;;;;18.35;2.70;;;;;;;;;;4926339;29;20047;-82
2024/02/05 13:15:42;;;;;;;18.13;2.38;;;;;;;;;;4919543;29;20040;-82
2024/02/05 13:18:10;;;;;;;14.77;2.15;;;;;;;;;;4927007;29;20039;-82
2024/02/05 13:20:40;;;;;;;7.35;2.33;;;;;;;;;;4931080;29;20032;-83
2024/02/05 13:23:11;;;;;;;14.45;2.95;;;;;;;;;;4929347;29;20043;-82
2024/02/05 13:25:39;;;;;;;18.17;2.88;;;;;;;;;;4933011;29;20028;-82
2024/02/05 13:28:06;;;;;;;21.67;3.20;;;;;;;;;;4918936;29;20039;-83
2024/02/05 13:30:35;;;;;;;10.98;2.40;;;;;;;;;;4940458;29;20040;-83
2024/02/05 13:33:03;;;;;;;14.13;2.22;;;;;;;;;;4937120;29;20040;-82
2024/02/05 13:35:31;;;;;;;24.40;2.92;;;;;;;;;;4929975;29;20040;-83
2024/02/05 13:37:57;;;;;;;13.18;2.63;;;;;;;;;;4949254;29;20043;-82
2024/02/05 13:40:27;;;;;;;11.55;2.50;;;;;;;;;;4932213;29;20032;-82
2024/02/05 13:42:54;;;;;;;9.05;2.13;;;;;;;;;;4927798;29;20030;-83
2024/02/05 13:45:22;;;;;;;13.77;2.70;;;;;;;;;;4924409;29;20032;-83
2024/02/05 13:47:52;;;;;;;12.18;2.15;;;;;;;;;;4934258;29;20039;-83
2024/02/05 13:50:19;;;;;;;11.60;2.70;;;;;;;;;;4937777;29;20039;-83
2024/02/05 13:52:46;;;;;;;13.43;2.80;;;;;;;;;;4935349;29;20047;-81
2024/02/05 13:55:13;;;;;;;15.25;2.92;;;;;;;;;;4936579;29;20337;-84
2024/02/05 13:57:39;;;;;;;13.30;2.42;;;;;;;;;;4935832;29;20035;-83
2024/02/05 14:00:12;;;;;;;14.15;2.95;;;;;;;;;;4918785;29;20055;-83
2024/02/05 14:02:41;;;;;;;10.57;2.22;;;;;;;;;;4936290;29;20031;-83
2024/02/05 14:05:07;;;;;;;14.57;2.38;;;;;;;;;;4919643;29;20121;-82
2024/02/05 14:07:33;;;;;;;13.98;2.40;;;;;;;;;;4933027;29;20036;-83
2024/02/05 14:10:05;;;;;;;15.07;2.35;;;;;;;;;;4946306;29;20050;-82
2024/02/05 14:12:32;;;;;;;16.10;2.90;;;;;;;;;;4934804;29;20040;-83
2024/02/05 14:14:58;;;;;;;14.77;2.13;;;;;;;;;;4935791;29;20028;-81
2024/02/05 14:17:24;;;;;;;9.82;2.10;;;;;;;;;;4928970;29;20031;-83
2024/02/05 14:19:50;;;;;;;13.73;1.92;;;;;;;;;;4940040;29;20096;-83
2024/02/05 14:22:16;;;;;;;18.13;2.45;;;;;;;;;;4942084;29;20036;-83
2024/02/05 14:24:42;;;;;;;11.13;2.33;;;;;;;;;;4939964;29;20039;-83
2024/02/05 14:27:08;;;;;;;11.30;2.35;;;;;;;;;;4941411;29;20111;-82
2024/02/05 14:29:35;;;;;;;13.23;2.85;;;;;;;;;;4939586;29;20039;-85
2024/02/05 14:32:04;;;;;;;14.40;2.60;;;;;;;;;;4936693;29;20047;-82
2024/02/05 14:34:33;;;;;;;14.77;2.30;;;;;;;;;;4939362;29;20044;-82
2024/02/05 14:37:00;;;;;;;11.07;2.95;;;;;;;;;;4940832;29;20032;-81
2024/02/05 14:39:26;;;;;;;10.57;2.35;;;;;;;;;;4940728;29;20039;-83
2024/02/05 14:41:52;;;;;;;9.10;1.92;;;;;;;;;;4952977;29;20031;-81
2024/02/05 14:44:21;;;;;;;17.23;2.33;;;;;;;;;;4938536;29;20035;-82
2024/02/05 14:46:47;;;;;;;11.35;2.33;;;;;;;;;;4955407;29;20032;-83
2024/02/05 14:49:14;;;;;;;13.35;2.67;;;;;;;;;;4935316;29;20037;-83
2024/02/05 14:51:40;;;;;;;11.32;2.13;;;;;;;;;;4947814;29;20036;-82
2024/02/05 14:54:10;;;;;;;11.07;2.30;;;;;;;;;;4939423;29;20115;-83
2024/02/05 14:56:36;;;;;;;7.05;2.40;;;;;;;;;;4952939;29;20036;-82
2024/02/05 14:59:04;;;;;;;18.45;2.72;;;;;;;;;;4938311;29;20063;-83
2024/02/05 15:01:29;;;;;;;14.98;2.92;;;;;;;;;;4939049;29;20055;-83
2024/02/05 15:03:55;;;;;;;8.77;2.13;;;;;;;;;;4937616;29;20031;-82
2024/02/05 15:06:21;;;;;;;12.82;2.75;;;;;;;;;;4928836;29;20019;-83
2024/02/05 15:08:48;;;;;;;10.55;2.70;;;;;;;;;;4935526;29;20054;-84
2024/02/05 15:11:14;;;;;;;13.90;3.17;;;;;;;;;;4952799;29;20035;-81
2024/02/05 15:13:39;;;;;;;13.80;2.55;;;;;;;;;;4922894;29;20075;-82
2024/02/05 15:16:05;;;;;;;10.88;2.40;;;;;;;;;;4922119;29;20028;-83
2024/02/05 15:18:31;;;;;;;6.82;1.58;;;;;;;;;;4917458;29;20035;-83
2024/02/05 15:20:57;;;;;;;12.82;2.42;;;;;;;;;;4937702;29;20032;-82
2024/02/05 15:23:23;;;;;;;10.13;2.55;;;;;;;;;;4943439;29;20068;-82
2024/02/05 15:25:49;;;;;;;14.88;2.58;;;;;;;;;;4948625;29;20032;-82
2024/02/05 15:28:18;;;;;;;9.00;2.05;;;;;;;;;;4916724;29;20048;-83
2024/02/05 15:30:44;;;;;;;12.13;2.33;;;;;;;;;;4942533;29;20042;-81
2024/02/05 15:33:10;;;;;;;14.02;2.67;;;;;;;;;;4921525;29;20031;-82
2024/02/05 15:35:37;;;;;;;11.82;1.98;;;;;;;;;;4931513;29;20032;-83
2024/02/05 15:38:03;;;;;;;11.60;2.22;;;;;;;;;;4929771;29;20032;-82
2024/02/05 15:40:30;;;;;;;11.07;2.28;;;;;;;;;;4935934;29;20522;-83
2024/02/05 15:42:58;;;;;;;7.60;2.58;;;;;;;;;;4929855;29;20036;-83
2024/02/05 15:45:24;;;;;;;9.77;1.83;;;;;;;;;;4949520;29;20032;-83
2024/02/05 15:47:51;;;;;;;9.85;2.10;;;;;;;;;;4949981;29;20063;-81
2024/02/05 15:50:17;;;;;;;7.93;1.73;;;;;;;;;;4916212;29;20036;-82
2024/02/05 15:52:43;;;;;;;6.22;1.83;;;;;;;;;;4953089;29;20031;-82
2024/02/05 15:55:09;;;;;;;14.32;2.80;;;;;;;;;;4951280;29;21434;-81
2024/02/05 15:57:34;;;;;;;7.63;2.00;;;;;;;;;;4949726;29;20024;-82
2024/02/05 16:00:00;;;;;;;13.55;2.10;;;;;;;;;;4937276;29;20035;-82
2024/02/05 16:02:26;;;;;;;12.60;1.85;;;;;;;;;;4935222;29;20040;-81